sensor_id;sensor_type;location;lat;lon;timestamp;temperature;humidity
83841;DHT22;73868;52.172;10.668;2024-02-14T00:00:59;5.30;87.20
83841;DHT22;73868;52.172;10.668;2024-02-14T00:03:25;5.20;87.50
83841;DHT22;73868;52.172;10.668;2024-02-14T00:05:50;5.30;87.00
83841;DHT22;73868;52.172;10.668;2024-02-14T00:08:17;5.30;86.50
83841;DHT22;73868;52.172;10.668;2024-02-14T00:10:43;5.40;86.50
83841;DHT22;73868;52.172;10.668;2024-02-14T00:13:10;5.20;86.70
83841;DHT22;73868;52.172;10.668;2024-02-14T00:15:36;5.30;86.80
83841;DHT22;73868;52.172;10.668;2024-02-14T00:18:02;5.30;86.80
83841;DHT22;73868;52.172;10.668;2024-02-14T00:20:28;5.40;86.90
83841;DHT22;73868;52.172;10.668;2024-02-14T00:22:53;5.30;87.00
83841;DHT22;73868;52.172;10.668;2024-02-14T00:25:19;5.30;87.00
83841;DHT22;73868;52.172;10.668;2024-02-14T00:27:45;5.30;87.00
83841;DHT22;73868;52.172;10.668;2024-02-14T00:30:11;5.40;86.80
83841;DHT22;73868;52.172;10.668;2024-02-14T00:32:36;5.40;86.90
83841;DHT22;73868;52.172;10.668;2024-02-14T00:35:02;5.40;87.20
83841;DHT22;73868;52.172;10.668;2024-02-14T00:37:28;5.50;87.30
83841;DHT22;73868;52.172;10.668;2024-02-14T00:39:54;5.40;87.30
83841;DHT22;73868;52.172;10.668;2024-02-14T00:42:21;5.40;86.90
83841;DHT22;73868;52.172;10.668;2024-02-14T00:44:47;5.50;87.10
83841;DHT22;73868;52.172;10.668;2024-02-14T00:47:12;5.40;87.50
83841;DHT22;73868;52.172;10.668;2024-02-14T00:49:38;5.40;87.70
83841;DHT22;73868;52.172;10.668;2024-02-14T00:52:04;5.30;87.80
83841;DHT22;73868;52.172;10.668;2024-02-14T00:54:30;5.20;88.00
83841;DHT22;73868;52.172;10.668;2024-02-14T00:56:55;5.20;88.10
83841;DHT22;73868;52.172;10.668;2024-02-14T00:59:21;5.00;88.40
83841;DHT22;73868;52.172;10.668;2024-02-14T01:01:46;5.00;88.90
83841;DHT22;73868;52.172;10.668;2024-02-14T01:04:12;4.90;89.10
83841;DHT22;73868;52.172;10.668;2024-02-14T01:06:38;4.80;89.60
83841;DHT22;73868;52.172;10.668;2024-02-14T01:09:03;4.90;89.40
83841;DHT22;73868;52.172;10.668;2024-02-14T01:11:29;4.90;89.40
83841;DHT22;73868;52.172;10.668;2024-02-14T01:13:55;5.00;89.70
83841;DHT22;73868;52.172;10.668;2024-02-14T01:16:20;5.10;89.90
83841;DHT22;73868;52.172;10.668;2024-02-14T01:18:46;5.00;90.00
83841;DHT22;73868;52.172;10.668;2024-02-14T01:21:11;5.10;89.90
83841;DHT22;73868;52.172;10.668;2024-02-14T01:23:37;5.00;89.80
83841;DHT22;73868;52.172;10.668;2024-02-14T01:26:03;5.00;90.00
83841;DHT22;73868;52.172;10.668;2024-02-14T01:28:29;5.00;90.00
83841;DHT22;73868;52.172;10.668;2024-02-14T01:30:55;5.10;90.20
83841;DHT22;73868;52.172;10.668;2024-02-14T01:33:22;5.10;90.00
83841;DHT22;73868;52.172;10.668;2024-02-14T01:35:48;5.00;89.60
83841;DHT22;73868;52.172;10.668;2024-02-14T01:38:13;5.10;89.40
83841;DHT22;73868;52.172;10.668;2024-02-14T01:40:42;5.20;89.20
83841;DHT22;73868;52.172;10.668;2024-02-14T01:43:10;5.20;89.00
83841;DHT22;73868;52.172;10.668;2024-02-14T01:45:36;5.20;88.80
83841;DHT22;73868;52.172;10.668;2024-02-14T01:48:02;5.10;88.80
83841;DHT22;73868;52.172;10.668;2024-02-14T01:50:28;5.20;88.60
83841;DHT22;73868;52.172;10.668;2024-02-14T01:52:56;5.20;88.30
83841;DHT22;73868;52.172;10.668;2024-02-14T01:55:25;5.00;88.40
83841;DHT22;73868;52.172;10.668;2024-02-14T01:57:52;5.10;88.60
83841;DHT22;73868;52.172;10.668;2024-02-14T02:00:18;4.90;88.60
83841;DHT22;73868;52.172;10.668;2024-02-14T02:02:44;5.10;88.70
83841;DHT22;73868;52.172;10.668;2024-02-14T02:05:12;5.00;88.80
83841;DHT22;73868;52.172;10.668;2024-02-14T02:07:38;5.10;88.80
83841;DHT22;73868;52.172;10.668;2024-02-14T02:10:09;5.10;88.10
83841;DHT22;73868;52.172;10.668;2024-02-14T02:12:34;5.30;88.30
83841;DHT22;73868;52.172;10.668;2024-02-14T02:15:07;5.30;88.30
83841;DHT22;73868;52.172;10.668;2024-02-14T02:17:36;5.30;88.10
83841;DHT22;73868;52.172;10.668;2024-02-14T02:20:02;5.40;88.00
83841;DHT22;73868;52.172;10.668;2024-02-14T02:22:27;5.40;88.00
83841;DHT22;73868;52.172;10.668;2024-02-14T02:24:57;5.40;87.80
83841;DHT22;73868;52.172;10.668;2024-02-14T02:27:24;5.30;87.50
83841;DHT22;73868;52.172;10.668;2024-02-14T02:29:49;5.50;87.50
83841;DHT22;73868;52.172;10.668;2024-02-14T02:32:15;5.50;87.60
83841;DHT22;73868;52.172;10.668;2024-02-14T02:34:41;5.60;87.80
83841;DHT22;73868;52.172;10.668;2024-02-14T02:37:08;5.50;87.70
83841;DHT22;73868;52.172;10.668;2024-02-14T02:39:34;5.50;87.60
83841;DHT22;73868;52.172;10.668;2024-02-14T02:42:04;5.60;87.50
83841;DHT22;73868;52.172;10.668;2024-02-14T02:44:30;5.60;87.30
83841;DHT22;73868;52.172;10.668;2024-02-14T02:46:56;5.60;86.90
83841;DHT22;73868;52.172;10.668;2024-02-14T02:49:22;5.70;86.90
83841;DHT22;73868;52.172;10.668;2024-02-14T02:51:47;5.70;87.00
83841;DHT22;73868;52.172;10.668;2024-02-14T02:54:13;5.70;87.10
83841;DHT22;73868;52.172;10.668;2024-02-14T02:56:41;5.70;87.30
83841;DHT22;73868;52.172;10.668;2024-02-14T02:59:07;5.70;87.30
83841;DHT22;73868;52.172;10.668;2024-02-14T03:01:36;5.80;87.30
83841;DHT22;73868;52.172;10.668;2024-02-14T03:04:02;5.80;87.30
83841;DHT22;73868;52.172;10.668;2024-02-14T03:06:28;5.80;87.50
83841;DHT22;73868;52.172;10.668;2024-02-14T03:08:53;5.80;87.50
83841;DHT22;73868;52.172;10.668;2024-02-14T03:11:21;5.90;87.90
83841;DHT22;73868;52.172;10.668;2024-02-14T03:13:47;5.90;87.80
83841;DHT22;73868;52.172;10.668;2024-02-14T03:16:14;5.90;88.00
83841;DHT22;73868;52.172;10.668;2024-02-14T03:18:40;5.90;88.40
83841;DHT22;73868;52.172;10.668;2024-02-14T03:21:06;5.90;88.70
83841;DHT22;73868;52.172;10.668;2024-02-14T03:23:31;5.90;88.90
83841;DHT22;73868;52.172;10.668;2024-02-14T03:25:57;5.90;89.50
83841;DHT22;73868;52.172;10.668;2024-02-14T03:28:23;6.00;89.90
83841;DHT22;73868;52.172;10.668;2024-02-14T03:30:48;6.10;90.10
83841;DHT22;73868;52.172;10.668;2024-02-14T03:33:14;6.40;89.40
83841;DHT22;73868;52.172;10.668;2024-02-14T03:35:40;6.50;88.60
83841;DHT22;73868;52.172;10.668;2024-02-14T03:38:06;6.70;88.30
83841;DHT22;73868;52.172;10.668;2024-02-14T03:40:34;6.70;88.10
83841;DHT22;73868;52.172;10.668;2024-02-14T03:43:01;6.90;87.70
83841;DHT22;73868;52.172;10.668;2024-02-14T03:45:27;6.90;87.80
83841;DHT22;73868;52.172;10.668;2024-02-14T03:47:55;6.90;88.40
83841;DHT22;73868;52.172;10.668;2024-02-14T03:50:22;6.90;88.40
83841;DHT22;73868;52.172;10.668;2024-02-14T03:52:47;6.70;88.90
83841;DHT22;73868;52.172;10.668;2024-02-14T03:55:14;6.70;89.30
83841;DHT22;73868;52.172;10.668;2024-02-14T03:57:42;6.60;89.70
83841;DHT22;73868;52.172;10.668;2024-02-14T04:00:11;6.50;90.10
83841;DHT22;73868;52.172;10.668;2024-02-14T04:02:37;6.40;90.10
83841;DHT22;73868;52.172;10.668;2024-02-14T04:05:03;6.40;90.70
83841;DHT22;73868;52.172;10.668;2024-02-14T04:07:28;6.40;90.90
83841;DHT22;73868;52.172;10.668;2024-02-14T04:09:55;6.30;91.00
83841;DHT22;73868;52.172;10.668;2024-02-14T04:12:21;6.40;91.00
83841;DHT22;73868;52.172;10.668;2024-02-14T04:14:47;6.30;91.10
83841;DHT22;73868;52.172;10.668;2024-02-14T04:17:12;6.30;91.30
83841;DHT22;73868;52.172;10.668;2024-02-14T04:19:39;6.30;92.00
83841;DHT22;73868;52.172;10.668;2024-02-14T04:22:04;6.10;92.40
83841;DHT22;73868;52.172;10.668;2024-02-14T04:24:33;6.20;93.00
83841;DHT22;73868;52.172;10.668;2024-02-14T04:26:59;6.10;93.50
83841;DHT22;73868;52.172;10.668;2024-02-14T04:29:26;6.20;93.10
83841;DHT22;73868;52.172;10.668;2024-02-14T04:31:53;6.10;93.40
83841;DHT22;73868;52.172;10.668;2024-02-14T04:34:19;6.10;93.70
83841;DHT22;73868;52.172;10.668;2024-02-14T04:36:45;6.20;93.10
83841;DHT22;73868;52.172;10.668;2024-02-14T04:39:10;6.30;93.10
83841;DHT22;73868;52.172;10.668;2024-02-14T04:41:36;6.30;92.50
83841;DHT22;73868;52.172;10.668;2024-02-14T04:44:04;6.40;92.30
83841;DHT22;73868;52.172;10.668;2024-02-14T04:46:32;6.30;92.60
83841;DHT22;73868;52.172;10.668;2024-02-14T04:48:58;6.20;92.90
83841;DHT22;73868;52.172;10.668;2024-02-14T04:51:23;6.30;92.80
83841;DHT22;73868;52.172;10.668;2024-02-14T04:53:49;6.40;92.20
83841;DHT22;73868;52.172;10.668;2024-02-14T04:56:14;6.40;92.00
83841;DHT22;73868;52.172;10.668;2024-02-14T04:58:40;6.40;91.80
83841;DHT22;73868;52.172;10.668;2024-02-14T05:01:06;6.50;91.90
83841;DHT22;73868;52.172;10.668;2024-02-14T05:03:32;6.50;91.40
83841;DHT22;73868;52.172;10.668;2024-02-14T05:05:58;6.60;91.60
83841;DHT22;73868;52.172;10.668;2024-02-14T05:08:24;6.50;91.70
83841;DHT22;73868;52.172;10.668;2024-02-14T05:10:49;6.50;92.00
83841;DHT22;73868;52.172;10.668;2024-02-14T05:13:15;6.50;92.40
83841;DHT22;73868;52.172;10.668;2024-02-14T05:15:41;6.40;92.70
83841;DHT22;73868;52.172;10.668;2024-02-14T05:18:07;6.50;92.40
83841;DHT22;73868;52.172;10.668;2024-02-14T05:20:33;6.40;92.40
83841;DHT22;73868;52.172;10.668;2024-02-14T05:22:58;6.40;92.70
83841;DHT22;73868;52.172;10.668;2024-02-14T05:25:24;6.50;92.70
83841;DHT22;73868;52.172;10.668;2024-02-14T05:27:50;6.40;93.40
83841;DHT22;73868;52.172;10.668;2024-02-14T05:30:15;6.40;93.20
83841;DHT22;73868;52.172;10.668;2024-02-14T05:32:41;6.50;93.20
83841;DHT22;73868;52.172;10.668;2024-02-14T05:35:07;6.40;93.00
83841;DHT22;73868;52.172;10.668;2024-02-14T05:37:33;6.50;92.80
83841;DHT22;73868;52.172;10.668;2024-02-14T05:39:58;6.50;91.70
83841;DHT22;73868;52.172;10.668;2024-02-14T05:42:25;6.70;91.70
83841;DHT22;73868;52.172;10.668;2024-02-14T05:44:51;6.70;91.10
83841;DHT22;73868;52.172;10.668;2024-02-14T05:47:17;6.80;91.20
83841;DHT22;73868;52.172;10.668;2024-02-14T05:49:44;6.90;91.00
83841;DHT22;73868;52.172;10.668;2024-02-14T05:52:09;7.00;91.10
83841;DHT22;73868;52.172;10.668;2024-02-14T05:54:35;7.00;91.20
83841;DHT22;73868;52.172;10.668;2024-02-14T05:57:01;7.00;91.00
83841;DHT22;73868;52.172;10.668;2024-02-14T05:59:27;7.00;91.10
83841;DHT22;73868;52.172;10.668;2024-02-14T06:01:53;7.10;91.30
83841;DHT22;73868;52.172;10.668;2024-02-14T06:04:19;7.00;91.20
83841;DHT22;73868;52.172;10.668;2024-02-14T06:06:44;7.00;90.80
83841;DHT22;73868;52.172;10.668;2024-02-14T06:09:10;7.10;90.70
83841;DHT22;73868;52.172;10.668;2024-02-14T06:11:37;7.20;90.60
83841;DHT22;73868;52.172;10.668;2024-02-14T06:14:08;7.10;90.60
83841;DHT22;73868;52.172;10.668;2024-02-14T06:16:34;7.20;90.60
83841;DHT22;73868;52.172;10.668;2024-02-14T06:19:00;7.10;90.40
83841;DHT22;73868;52.172;10.668;2024-02-14T06:21:26;7.30;90.50
83841;DHT22;73868;52.172;10.668;2024-02-14T06:23:52;7.20;90.60
83841;DHT22;73868;52.172;10.668;2024-02-14T06:26:18;7.30;91.00
83841;DHT22;73868;52.172;10.668;2024-02-14T06:28:46;7.30;90.40
83841;DHT22;73868;52.172;10.668;2024-02-14T06:31:12;7.40;90.20
83841;DHT22;73868;52.172;10.668;2024-02-14T06:33:38;7.30;90.20
83841;DHT22;73868;52.172;10.668;2024-02-14T06:36:04;7.40;90.40
83841;DHT22;73868;52.172;10.668;2024-02-14T06:38:31;7.50;90.20
83841;DHT22;73868;52.172;10.668;2024-02-14T06:40:56;7.50;89.90
83841;DHT22;73868;52.172;10.668;2024-02-14T06:43:22;7.50;89.50
83841;DHT22;73868;52.172;10.668;2024-02-14T06:45:48;7.70;89.20
83841;DHT22;73868;52.172;10.668;2024-02-14T06:48:13;7.80;89.30
83841;DHT22;73868;52.172;10.668;2024-02-14T06:50:39;7.80;89.00
83841;DHT22;73868;52.172;10.668;2024-02-14T06:53:04;7.80;89.20
83841;DHT22;73868;52.172;10.668;2024-02-14T06:55:30;7.80;89.20
83841;DHT22;73868;52.172;10.668;2024-02-14T06:58:00;7.80;89.20
83841;DHT22;73868;52.172;10.668;2024-02-14T07:00:26;7.80;89.20
83841;DHT22;73868;52.172;10.668;2024-02-14T07:02:54;7.80;89.40
83841;DHT22;73868;52.172;10.668;2024-02-14T07:05:19;7.80;89.40
83841;DHT22;73868;52.172;10.668;2024-02-14T07:07:45;7.80;89.70
83841;DHT22;73868;52.172;10.668;2024-02-14T07:10:12;7.80;90.40
83841;DHT22;73868;52.172;10.668;2024-02-14T07:12:38;7.80;90.00
83841;DHT22;73868;52.172;10.668;2024-02-14T07:15:05;7.80;90.50
83841;DHT22;73868;52.172;10.668;2024-02-14T07:17:31;7.80;90.80
83841;DHT22;73868;52.172;10.668;2024-02-14T07:19:56;7.80;90.90
83841;DHT22;73868;52.172;10.668;2024-02-14T07:22:22;7.80;90.90
83841;DHT22;73868;52.172;10.668;2024-02-14T07:24:48;7.80;91.30
83841;DHT22;73868;52.172;10.668;2024-02-14T07:27:14;7.80;91.40
83841;DHT22;73868;52.172;10.668;2024-02-14T07:29:40;7.80;91.20
83841;DHT22;73868;52.172;10.668;2024-02-14T07:32:06;7.90;91.00
83841;DHT22;73868;52.172;10.668;2024-02-14T07:34:32;8.00;91.60
83841;DHT22;73868;52.172;10.668;2024-02-14T07:36:58;8.00;91.80
83841;DHT22;73868;52.172;10.668;2024-02-14T07:39:23;8.10;91.60
83841;DHT22;73868;52.172;10.668;2024-02-14T07:41:49;8.00;91.80
83841;DHT22;73868;52.172;10.668;2024-02-14T07:44:14;8.10;91.60
83841;DHT22;73868;52.172;10.668;2024-02-14T07:46:40;8.00;92.40
83841;DHT22;73868;52.172;10.668;2024-02-14T07:49:06;8.10;92.30
83841;DHT22;73868;52.172;10.668;2024-02-14T07:51:32;8.10;92.60
83841;DHT22;73868;52.172;10.668;2024-02-14T07:54:02;8.00;92.50
83841;DHT22;73868;52.172;10.668;2024-02-14T07:56:29;8.00;93.10
83841;DHT22;73868;52.172;10.668;2024-02-14T07:58:55;8.00;93.30
83841;DHT22;73868;52.172;10.668;2024-02-14T08:01:20;8.10;93.20
83841;DHT22;73868;52.172;10.668;2024-02-14T08:03:46;8.10;93.40
83841;DHT22;73868;52.172;10.668;2024-02-14T08:06:12;8.10;93.30
83841;DHT22;73868;52.172;10.668;2024-02-14T08:08:37;8.10;93.40
83841;DHT22;73868;52.172;10.668;2024-02-14T08:11:03;8.20;93.40
83841;DHT22;73868;52.172;10.668;2024-02-14T08:13:29;8.20;93.80
83841;DHT22;73868;52.172;10.668;2024-02-14T08:15:54;8.20;93.50
83841;DHT22;73868;52.172;10.668;2024-02-14T08:18:20;8.20;93.60
83841;DHT22;73868;52.172;10.668;2024-02-14T08:20:46;8.30;94.10
83841;DHT22;73868;52.172;10.668;2024-02-14T08:23:11;8.30;93.90
83841;DHT22;73868;52.172;10.668;2024-02-14T08:25:37;8.30;93.60
83841;DHT22;73868;52.172;10.668;2024-02-14T08:28:02;8.30;93.70
83841;DHT22;73868;52.172;10.668;2024-02-14T08:30:28;8.40;93.90
83841;DHT22;73868;52.172;10.668;2024-02-14T08:32:54;8.40;93.50
83841;DHT22;73868;52.172;10.668;2024-02-14T08:35:19;8.30;93.70
83841;DHT22;73868;52.172;10.668;2024-02-14T08:37:46;8.30;93.60
83841;DHT22;73868;52.172;10.668;2024-02-14T08:40:12;8.40;93.80
83841;DHT22;73868;52.172;10.668;2024-02-14T08:42:37;8.40;93.80
83841;DHT22;73868;52.172;10.668;2024-02-14T08:45:04;8.40;93.80
83841;DHT22;73868;52.172;10.668;2024-02-14T08:47:30;8.40;93.80
83841;DHT22;73868;52.172;10.668;2024-02-14T08:49:55;8.40;94.40
83841;DHT22;73868;52.172;10.668;2024-02-14T08:52:21;8.40;94.50
83841;DHT22;73868;52.172;10.668;2024-02-14T08:54:47;8.40;94.50
83841;DHT22;73868;52.172;10.668;2024-02-14T08:57:12;8.40;94.70
83841;DHT22;73868;52.172;10.668;2024-02-14T08:59:38;8.30;94.90
83841;DHT22;73868;52.172;10.668;2024-02-14T09:02:03;8.30;95.20
83841;DHT22;73868;52.172;10.668;2024-02-14T09:04:29;8.30;95.60
83841;DHT22;73868;52.172;10.668;2024-02-14T09:06:55;8.20;95.40
83841;DHT22;73868;52.172;10.668;2024-02-14T09:09:21;8.20;95.50
83841;DHT22;73868;52.172;10.668;2024-02-14T09:11:47;8.30;95.50
83841;DHT22;73868;52.172;10.668;2024-02-14T09:14:12;8.30;95.20
83841;DHT22;73868;52.172;10.668;2024-02-14T09:16:38;8.40;95.20
83841;DHT22;73868;52.172;10.668;2024-02-14T09:19:04;8.40;95.00
83841;DHT22;73868;52.172;10.668;2024-02-14T09:21:33;8.40;94.70
83841;DHT22;73868;52.172;10.668;2024-02-14T09:24:01;8.50;94.70
83841;DHT22;73868;52.172;10.668;2024-02-14T09:26:26;8.60;94.60
83841;DHT22;73868;52.172;10.668;2024-02-14T09:28:52;8.70;94.30
83841;DHT22;73868;52.172;10.668;2024-02-14T09:31:18;8.80;93.80
83841;DHT22;73868;52.172;10.668;2024-02-14T09:33:48;8.90;94.20
83841;DHT22;73868;52.172;10.668;2024-02-14T09:36:15;9.00;93.70
83841;DHT22;73868;52.172;10.668;2024-02-14T09:38:41;9.00;93.60
83841;DHT22;73868;52.172;10.668;2024-02-14T09:41:23;9.10;93.50
83841;DHT22;73868;52.172;10.668;2024-02-14T09:43:52;9.20;92.90
83841;DHT22;73868;52.172;10.668;2024-02-14T09:46:17;9.20;93.10
83841;DHT22;73868;52.172;10.668;2024-02-14T09:48:44;9.30;93.00
83841;DHT22;73868;52.172;10.668;2024-02-14T09:51:11;9.40;92.70
83841;DHT22;73868;52.172;10.668;2024-02-14T09:53:38;9.40;92.30
83841;DHT22;73868;52.172;10.668;2024-02-14T09:56:04;9.50;92.30
83841;DHT22;73868;52.172;10.668;2024-02-14T09:58:32;9.60;91.90
83841;DHT22;73868;52.172;10.668;2024-02-14T10:00:57;9.60;91.60
83841;DHT22;73868;52.172;10.668;2024-02-14T10:03:23;9.60;90.90
83841;DHT22;73868;52.172;10.668;2024-02-14T10:05:48;9.70;90.40
83841;DHT22;73868;52.172;10.668;2024-02-14T10:08:14;9.80;90.40
83841;DHT22;73868;52.172;10.668;2024-02-14T10:10:40;9.90;90.70
83841;DHT22;73868;52.172;10.668;2024-02-14T10:13:08;10.00;90.20
83841;DHT22;73868;52.172;10.668;2024-02-14T10:15:34;10.20;89.60
83841;DHT22;73868;52.172;10.668;2024-02-14T10:17:59;10.40;89.20
83841;DHT22;73868;52.172;10.668;2024-02-14T10:20:26;10.50;89.30
83841;DHT22;73868;52.172;10.668;2024-02-14T10:23:03;10.70;88.80
83841;DHT22;73868;52.172;10.668;2024-02-14T10:25:29;10.80;87.50
83841;DHT22;73868;52.172;10.668;2024-02-14T10:27:55;10.80;87.20
83841;DHT22;73868;52.172;10.668;2024-02-14T10:30:20;10.70;87.00
83841;DHT22;73868;52.172;10.668;2024-02-14T10:32:47;10.70;87.20
83841;DHT22;73868;52.172;10.668;2024-02-14T10:35:14;10.80;87.60
83841;DHT22;73868;52.172;10.668;2024-02-14T10:37:40;10.80;87.30
83841;DHT22;73868;52.172;10.668;2024-02-14T10:40:06;10.70;87.10
83841;DHT22;73868;52.172;10.668;2024-02-14T10:42:33;10.70;87.20
83841;DHT22;73868;52.172;10.668;2024-02-14T10:44:59;10.90;87.30
83841;DHT22;73868;52.172;10.668;2024-02-14T10:47:30;10.90;86.90
83841;DHT22;73868;52.172;10.668;2024-02-14T10:50:09;10.90;87.00
83841;DHT22;73868;52.172;10.668;2024-02-14T10:52:37;11.00;86.50
83841;DHT22;73868;52.172;10.668;2024-02-14T10:55:06;11.00;87.00
83841;DHT22;73868;52.172;10.668;2024-02-14T10:57:32;11.00;86.20
83841;DHT22;73868;52.172;10.668;2024-02-14T11:00:00;11.20;86.90
83841;DHT22;73868;52.172;10.668;2024-02-14T11:02:26;11.30;85.70
83841;DHT22;73868;52.172;10.668;2024-02-14T11:04:56;11.30;85.80
83841;DHT22;73868;52.172;10.668;2024-02-14T11:07:21;11.20;86.00
83841;DHT22;73868;52.172;10.668;2024-02-14T11:09:48;11.10;85.70
83841;DHT22;73868;52.172;10.668;2024-02-14T11:12:25;11.00;86.00
83841;DHT22;73868;52.172;10.668;2024-02-14T11:14:51;11.00;86.20
83841;DHT22;73868;52.172;10.668;2024-02-14T11:17:19;10.90;85.90
83841;DHT22;73868;52.172;10.668;2024-02-14T11:19:50;11.10;86.40
83841;DHT22;73868;52.172;10.668;2024-02-14T11:22:21;11.20;85.40
83841;DHT22;73868;52.172;10.668;2024-02-14T11:24:47;11.20;85.60
83841;DHT22;73868;52.172;10.668;2024-02-14T11:27:13;11.10;86.10
83841;DHT22;73868;52.172;10.668;2024-02-14T11:29:40;11.00;85.80
83841;DHT22;73868;52.172;10.668;2024-02-14T11:32:09;11.10;86.00
83841;DHT22;73868;52.172;10.668;2024-02-14T11:34:36;11.10;85.90
83841;DHT22;73868;52.172;10.668;2024-02-14T11:37:02;11.20;85.90
83841;DHT22;73868;52.172;10.668;2024-02-14T11:39:28;11.10;85.60
83841;DHT22;73868;52.172;10.668;2024-02-14T11:41:53;11.30;85.50
83841;DHT22;73868;52.172;10.668;2024-02-14T11:44:21;11.10;85.30
83841;DHT22;73868;52.172;10.668;2024-02-14T11:46:47;11.10;85.80
83841;DHT22;73868;52.172;10.668;2024-02-14T11:49:13;11.10;85.80
83841;DHT22;73868;52.172;10.668;2024-02-14T11:51:38;11.10;85.40
83841;DHT22;73868;52.172;10.668;2024-02-14T11:54:07;11.20;85.40
83841;DHT22;73868;52.172;10.668;2024-02-14T11:56:39;11.30;86.30
83841;DHT22;73868;52.172;10.668;2024-02-14T11:59:06;11.40;85.40
83841;DHT22;73868;52.172;10.668;2024-02-14T12:01:34;11.30;85.90
83841;DHT22;73868;52.172;10.668;2024-02-14T12:04:00;11.30;85.60
83841;DHT22;73868;52.172;10.668;2024-02-14T12:06:30;11.30;85.50
83841;DHT22;73868;52.172;10.668;2024-02-14T12:09:03;11.30;85.70
83841;DHT22;73868;52.172;10.668;2024-02-14T12:11:36;11.30;85.90
83841;DHT22;73868;52.172;10.668;2024-02-14T12:14:08;11.40;85.10
83841;DHT22;73868;52.172;10.668;2024-02-14T12:16:38;11.20;86.20
83841;DHT22;73868;52.172;10.668;2024-02-14T12:19:07;11.30;86.10
83841;DHT22;73868;52.172;10.668;2024-02-14T12:21:37;11.30;86.20
83841;DHT22;73868;52.172;10.668;2024-02-14T12:24:10;11.30;85.60
83841;DHT22;73868;52.172;10.668;2024-02-14T12:26:38;11.30;85.80
83841;DHT22;73868;52.172;10.668;2024-02-14T12:29:05;11.40;86.00
83841;DHT22;73868;52.172;10.668;2024-02-14T12:31:32;11.30;85.90
83841;DHT22;73868;52.172;10.668;2024-02-14T12:33:58;11.40;86.40
83841;DHT22;73868;52.172;10.668;2024-02-14T12:36:33;11.40;86.20
83841;DHT22;73868;52.172;10.668;2024-02-14T12:38:59;11.40;85.90
83841;DHT22;73868;52.172;10.668;2024-02-14T12:41:28;11.40;85.50
83841;DHT22;73868;52.172;10.668;2024-02-14T12:43:55;11.50;85.90
83841;DHT22;73868;52.172;10.668;2024-02-14T12:46:20;11.50;86.20
83841;DHT22;73868;52.172;10.668;2024-02-14T12:48:46;11.30;86.50
83841;DHT22;73868;52.172;10.668;2024-02-14T12:51:12;11.20;86.40
83841;DHT22;73868;52.172;10.668;2024-02-14T12:53:38;11.20;86.70
83841;DHT22;73868;52.172;10.668;2024-02-14T12:56:04;11.20;86.70
83841;DHT22;73868;52.172;10.668;2024-02-14T12:58:31;11.30;86.70
83841;DHT22;73868;52.172;10.668;2024-02-14T13:00:57;11.30;86.70
83841;DHT22;73868;52.172;10.668;2024-02-14T13:03:24;11.30;87.50
83841;DHT22;73868;52.172;10.668;2024-02-14T13:05:50;11.50;87.40
83841;DHT22;73868;52.172;10.668;2024-02-14T13:08:19;11.50;86.10
83841;DHT22;73868;52.172;10.668;2024-02-14T13:10:45;11.50;86.10
83841;DHT22;73868;52.172;10.668;2024-02-14T13:13:11;11.40;86.20
83841;DHT22;73868;52.172;10.668;2024-02-14T13:15:37;11.50;86.70
83841;DHT22;73868;52.172;10.668;2024-02-14T13:18:03;11.50;86.50
83841;DHT22;73868;52.172;10.668;2024-02-14T13:20:29;11.60;86.40
83841;DHT22;73868;52.172;10.668;2024-02-14T13:22:55;11.60;86.20
83841;DHT22;73868;52.172;10.668;2024-02-14T13:25:21;11.50;85.30
83841;DHT22;73868;52.172;10.668;2024-02-14T13:27:47;11.60;87.20
83841;DHT22;73868;52.172;10.668;2024-02-14T13:30:13;11.60;87.00
83841;DHT22;73868;52.172;10.668;2024-02-14T13:32:39;11.60;87.80
83841;DHT22;73868;52.172;10.668;2024-02-14T13:35:05;11.60;86.90
83841;DHT22;73868;52.172;10.668;2024-02-14T13:37:34;11.60;86.20
83841;DHT22;73868;52.172;10.668;2024-02-14T13:40:01;11.70;86.70
83841;DHT22;73868;52.172;10.668;2024-02-14T13:42:30;11.60;86.10
83841;DHT22;73868;52.172;10.668;2024-02-14T13:44:56;11.70;86.40
83841;DHT22;73868;52.172;10.668;2024-02-14T13:47:21;11.70;85.80
83841;DHT22;73868;52.172;10.668;2024-02-14T13:49:48;11.70;86.30
83841;DHT22;73868;52.172;10.668;2024-02-14T13:52:14;11.60;86.20
83841;DHT22;73868;52.172;10.668;2024-02-14T13:54:41;11.70;86.60
83841;DHT22;73868;52.172;10.668;2024-02-14T13:57:07;11.60;86.70
83841;DHT22;73868;52.172;10.668;2024-02-14T13:59:32;11.60;86.40
83841;DHT22;73868;52.172;10.668;2024-02-14T14:01:58;11.60;86.60
83841;DHT22;73868;52.172;10.668;2024-02-14T14:04:24;11.60;86.90
83841;DHT22;73868;52.172;10.668;2024-02-14T14:06:51;11.60;86.90
83841;DHT22;73868;52.172;10.668;2024-02-14T14:09:16;11.60;86.40
83841;DHT22;73868;52.172;10.668;2024-02-14T14:11:42;11.60;86.50
83841;DHT22;73868;52.172;10.668;2024-02-14T14:14:07;11.60;86.40
83841;DHT22;73868;52.172;10.668;2024-02-14T14:16:34;11.60;86.10
83841;DHT22;73868;52.172;10.668;2024-02-14T14:19:00;11.70;86.20
83841;DHT22;73868;52.172;10.668;2024-02-14T14:21:26;11.50;86.30
83841;DHT22;73868;52.172;10.668;2024-02-14T14:23:52;11.50;86.70
83841;DHT22;73868;52.172;10.668;2024-02-14T14:26:18;11.50;86.40
83841;DHT22;73868;52.172;10.668;2024-02-14T14:28:43;11.40;86.70
83841;DHT22;73868;52.172;10.668;2024-02-14T14:31:10;11.40;86.70
83841;DHT22;73868;52.172;10.668;2024-02-14T14:33:37;11.30;86.90
83841;DHT22;73868;52.172;10.668;2024-02-14T14:36:04;11.30;87.30
83841;DHT22;73868;52.172;10.668;2024-02-14T14:38:30;11.30;87.20
83841;DHT22;73868;52.172;10.668;2024-02-14T14:40:56;11.30;87.50
83841;DHT22;73868;52.172;10.668;2024-02-14T14:43:22;11.30;87.40
83841;DHT22;73868;52.172;10.668;2024-02-14T14:45:47;11.30;87.30
83841;DHT22;73868;52.172;10.668;2024-02-14T14:48:15;11.30;87.70
83841;DHT22;73868;52.172;10.668;2024-02-14T14:50:40;11.30;87.60
83841;DHT22;73868;52.172;10.668;2024-02-14T14:53:06;11.40;87.80
83841;DHT22;73868;52.172;10.668;2024-02-14T14:58:15;11.30;87.30
83841;DHT22;73868;52.172;10.668;2024-02-14T15:00:40;11.30;87.00
83841;DHT22;73868;52.172;10.668;2024-02-14T15:03:08;11.40;87.20
83841;DHT22;73868;52.172;10.668;2024-02-14T15:05:33;11.30;87.30
83841;DHT22;73868;52.172;10.668;2024-02-14T15:07:59;11.30;87.60
83841;DHT22;73868;52.172;10.668;2024-02-14T15:10:24;11.30;87.50
83841;DHT22;73868;52.172;10.668;2024-02-14T15:12:50;11.30;87.50
83841;DHT22;73868;52.172;10.668;2024-02-14T15:15:15;11.30;87.40
83841;DHT22;73868;52.172;10.668;2024-02-14T15:17:42;11.30;87.60
83841;DHT22;73868;52.172;10.668;2024-02-14T15:20:08;11.30;87.70
83841;DHT22;73868;52.172;10.668;2024-02-14T15:22:37;11.30;87.40